createdAt,value
2018-12-18T00:01:30.454Z,89.33
2018-12-18T00:04:04.348Z,82.33
2018-12-18T00:06:38.413Z,85.97
2018-12-18T00:09:12.202Z,76.03
2018-12-18T00:11:46.136Z,77.00
2018-12-18T00:14:19.935Z,77.87
2018-12-18T00:16:53.823Z,75.83
2018-12-18T00:19:27.560Z,76.17
2018-12-18T00:22:01.451Z,81.93
2018-12-18T00:24:35.498Z,78.63
2018-12-18T00:27:09.522Z,71.97
2018-12-18T00:29:43.371Z,78.73
2018-12-18T00:32:17.089Z,83.93
2018-12-18T00:34:50.998Z,81.77
2018-12-18T00:37:24.789Z,91.07
2018-12-18T00:39:58.683Z,86.47
2018-12-18T00:42:32.491Z,72.57
2018-12-18T00:45:06.495Z,79.30
2018-12-18T00:47:40.389Z,80.17
2018-12-18T00:50:14.747Z,89.40
2018-12-18T00:52:48.409Z,88.73
2018-12-18T00:55:22.209Z,84.03
2018-12-18T00:57:56.105Z,80.90
2018-12-18T01:00:29.979Z,77.73
2018-12-18T01:03:04.057Z,84.33
2018-12-18T01:05:37.768Z,83.77
2018-12-18T01:08:11.617Z,81.83
2018-12-18T01:10:45.490Z,75.90
2018-12-18T01:13:19.447Z,76.43
2018-12-18T01:15:53.334Z,78.10
2018-12-18T01:18:27.406Z,72.43
2018-12-18T01:21:01.254Z,72.80
2018-12-18T01:23:35.241Z,70.97
2018-12-18T01:26:09.040Z,71.33
2018-12-18T01:28:43.065Z,76.67
2018-12-18T01:31:17.003Z,70.83
2018-12-18T01:33:50.898Z,71.00
2018-12-18T01:36:24.765Z,84.83
2018-12-18T01:38:58.553Z,78.13
2018-12-18T01:41:32.356Z,80.97
2018-12-18T01:44:06.406Z,77.13
2018-12-18T01:46:40.225Z,87.40
2018-12-18T01:49:14.135Z,90.13
2018-12-18T01:51:47.996Z,82.20
2018-12-18T01:54:21.842Z,84.97
2018-12-18T01:56:55.641Z,88.87
2018-12-18T01:59:29.450Z,79.47
2018-12-18T02:02:03.303Z,82.73
2018-12-18T02:04:37.322Z,71.97
2018-12-18T02:07:11.155Z,75.87
2018-12-18T02:09:44.935Z,78.87
2018-12-18T02:12:18.746Z,69.00
2018-12-18T02:14:52.515Z,73.90
2018-12-18T02:17:26.379Z,70.17
2018-12-18T02:20:00.302Z,73.80
2018-12-18T02:22:34.130Z,67.87
2018-12-18T02:25:08.017Z,71.33
2018-12-18T02:27:41.808Z,68.47
2018-12-18T02:30:15.508Z,75.13
2018-12-18T02:32:49.584Z,71.13
2018-12-18T02:35:23.385Z,64.47
2018-12-18T02:37:57.246Z,64.10
2018-12-18T02:40:31.118Z,59.87
2018-12-18T02:43:04.967Z,65.40
2018-12-18T02:45:38.778Z,66.73
2018-12-18T02:48:12.684Z,62.93
2018-12-18T02:50:46.528Z,55.53
2018-12-18T02:53:20.315Z,59.33
2018-12-18T02:55:54.149Z,62.77
2018-12-18T02:58:28.092Z,58.70
2018-12-18T03:01:01.913Z,65.73
2018-12-18T03:03:35.741Z,65.53
2018-12-18T03:06:09.558Z,71.27
2018-12-18T03:08:43.351Z,67.77
2018-12-18T03:11:20.178Z,62.73
2018-12-18T03:13:53.881Z,64.67
2018-12-18T03:16:27.945Z,62.07
2018-12-18T03:19:01.881Z,64.20
2018-12-18T03:21:35.870Z,70.00
2018-12-18T03:24:09.705Z,66.30
2018-12-18T03:26:43.357Z,61.77
2018-12-18T03:29:17.420Z,68.10
2018-12-18T03:31:52.030Z,58.60
2018-12-18T03:34:28.433Z,68.53
2018-12-18T03:37:01.724Z,62.13
2018-12-18T03:39:35.514Z,61.17
2018-12-18T03:42:09.417Z,64.10
2018-12-18T03:44:43.178Z,58.43
2018-12-18T03:47:17.006Z,64.90
2018-12-18T03:49:50.745Z,62.77
2018-12-18T03:52:24.448Z,53.90
2018-12-18T03:54:58.245Z,65.90
2018-12-18T03:57:32.254Z,58.93
2018-12-18T04:00:08.058Z,68.67
2018-12-18T04:02:41.753Z,68.50
2018-12-18T04:05:15.631Z,65.83
2018-12-18T04:07:49.618Z,62.27
2018-12-18T04:10:23.438Z,61.97
2018-12-18T04:12:57.260Z,63.67
2018-12-18T04:15:31.175Z,49.50
2018-12-18T04:18:04.930Z,61.90
2018-12-18T04:20:38.834Z,61.17
2018-12-18T04:23:12.511Z,59.40
2018-12-18T04:25:46.312Z,51.67
2018-12-18T04:28:20.288Z,56.07
2018-12-18T04:30:54.133Z,57.50
2018-12-18T04:33:28.105Z,54.67
2018-12-18T04:36:02.002Z,54.77
2018-12-18T04:38:36.033Z,57.07
2018-12-18T04:41:09.742Z,56.00
2018-12-18T04:43:43.525Z,49.83
2018-12-18T04:46:17.568Z,47.43
2018-12-18T04:48:51.388Z,48.47
2018-12-18T04:51:25.277Z,54.03
2018-12-18T04:53:59.249Z,55.00
2018-12-18T04:56:33.081Z,57.10
2018-12-18T04:59:06.882Z,51.80
2018-12-18T05:01:40.657Z,55.87
2018-12-18T05:04:14.461Z,55.93
2018-12-18T05:06:48.371Z,53.20
2018-12-18T05:09:22.297Z,56.10
2018-12-18T05:11:56.379Z,53.00
2018-12-18T05:14:30.193Z,51.63
2018-12-18T05:17:03.957Z,54.73
2018-12-18T05:19:37.934Z,53.87
2018-12-18T05:22:11.640Z,55.33
2018-12-18T05:24:45.541Z,54.33
2018-12-18T05:27:19.357Z,56.90
2018-12-18T05:29:53.968Z,61.57
2018-12-18T05:32:27.757Z,59.43
2018-12-18T05:35:01.581Z,57.00
2018-12-18T05:37:35.439Z,59.03
2018-12-18T05:40:09.635Z,55.00
2018-12-18T05:42:43.561Z,56.47
2018-12-18T05:45:17.414Z,53.10
2018-12-18T05:47:51.289Z,60.67
2018-12-18T05:50:25.080Z,57.60
2018-12-18T05:52:58.856Z,51.63
2018-12-18T05:55:32.628Z,50.67
2018-12-18T05:58:06.422Z,43.27
2018-12-18T06:00:40.267Z,41.90
2018-12-18T06:03:14.053Z,41.50
2018-12-18T06:05:48.061Z,40.20
2018-12-18T06:08:21.759Z,37.70
2018-12-18T06:10:55.594Z,43.73
2018-12-18T06:13:29.368Z,37.63
2018-12-18T06:16:03.153Z,36.30
2018-12-18T06:18:37.017Z,34.90
2018-12-18T06:21:10.867Z,41.43
2018-12-18T06:23:44.673Z,33.13
2018-12-18T06:26:18.538Z,32.80
2018-12-18T06:28:52.306Z,36.13
2018-12-18T06:31:26.118Z,34.00
2018-12-18T06:34:00.000Z,33.47
2018-12-18T06:36:33.971Z,36.97
2018-12-18T06:39:07.913Z,33.20
2018-12-18T06:41:41.728Z,30.43
2018-12-18T06:44:15.767Z,26.97
2018-12-18T06:46:49.577Z,25.50
2018-12-18T06:49:23.621Z,28.30
2018-12-18T06:51:57.671Z,29.97
2018-12-18T06:54:31.493Z,28.83
2018-12-18T06:57:05.436Z,29.13
2018-12-18T06:59:39.309Z,26.43
2018-12-18T07:02:13.110Z,25.30
2018-12-18T07:04:47.047Z,24.37
2018-12-18T07:07:20.934Z,23.90
2018-12-18T07:09:54.991Z,22.33
2018-12-18T07:12:28.954Z,25.20
2018-12-18T07:15:03.127Z,29.30
2018-12-18T07:17:37.073Z,28.73
2018-12-18T07:20:11.121Z,29.73
2018-12-18T07:22:45.125Z,29.87
2018-12-18T07:25:18.978Z,25.73
2018-12-18T07:27:52.805Z,24.67
2018-12-18T07:30:26.670Z,34.07
2018-12-18T07:33:00.358Z,25.90
2018-12-18T07:35:34.348Z,25.77
2018-12-18T07:38:08.061Z,23.70
2018-12-18T07:40:41.894Z,24.30
2018-12-18T07:43:15.693Z,22.63
2018-12-18T07:45:49.392Z,24.83
2018-12-18T07:48:23.190Z,21.33
2018-12-18T07:50:57.005Z,22.60
2018-12-18T07:53:30.878Z,21.87
2018-12-18T07:56:04.745Z,22.57
2018-12-18T07:58:38.428Z,20.97
2018-12-18T08:01:12.174Z,23.50
2018-12-18T08:03:46.155Z,24.40
2018-12-18T08:06:19.953Z,24.60
2018-12-18T08:08:53.881Z,23.90
2018-12-18T08:11:27.808Z,24.03
2018-12-18T08:14:01.742Z,22.73
2018-12-18T08:16:35.518Z,23.63
2018-12-18T08:19:09.554Z,22.47
2018-12-18T08:21:43.343Z,23.20
2018-12-18T08:24:17.364Z,17.83
2018-12-18T08:26:51.248Z,18.17
2018-12-18T08:29:25.062Z,19.23
2018-12-18T08:31:59.148Z,22.27
2018-12-18T08:34:33.103Z,24.70
2018-12-18T08:37:06.853Z,20.23
2018-12-18T08:39:40.631Z,22.87
2018-12-18T08:42:14.622Z,23.07
2018-12-18T08:44:48.624Z,23.47
2018-12-18T08:47:22.424Z,19.63
2018-12-18T08:49:56.254Z,21.80
2018-12-18T08:52:30.587Z,23.30
2018-12-18T08:55:04.646Z,22.23
2018-12-18T08:57:38.530Z,22.40
2018-12-18T09:00:12.532Z,22.30
2018-12-18T09:02:46.283Z,24.07
2018-12-18T09:05:20.418Z,21.30
2018-12-18T09:07:54.303Z,21.27
2018-12-18T09:10:28.307Z,20.67
2018-12-18T09:13:02.166Z,23.87
2018-12-18T09:15:41.662Z,19.87
2018-12-18T09:18:15.457Z,23.37
2018-12-18T09:20:49.432Z,21.00
2018-12-18T09:23:23.280Z,17.63
2018-12-18T09:25:57.078Z,22.13
2018-12-18T09:28:30.837Z,20.37
2018-12-18T09:31:04.539Z,19.40
2018-12-18T09:33:38.393Z,18.90
2018-12-18T09:36:12.247Z,19.67
2018-12-18T09:38:51.706Z,18.93
2018-12-18T09:41:25.965Z,18.53
2018-12-18T09:44:05.604Z,16.00
2018-12-18T09:46:39.429Z,17.60
2018-12-18T09:49:13.254Z,17.73
2018-12-18T09:51:47.229Z,17.10
2018-12-18T09:54:21.054Z,16.10
2018-12-18T09:56:57.945Z,16.07
2018-12-18T09:59:31.731Z,15.50
2018-12-18T10:02:05.498Z,11.17
2018-12-18T10:04:39.305Z,13.77
2018-12-18T10:07:13.022Z,13.80
2018-12-18T10:09:46.874Z,13.27
2018-12-18T10:12:22.701Z,13.70
2018-12-18T10:14:56.575Z,11.87
2018-12-18T10:17:30.400Z,9.57
2018-12-18T10:20:06.270Z,11.30
2018-12-18T10:22:40.338Z,11.00
2018-12-18T10:25:14.297Z,13.13
2018-12-18T10:27:48.066Z,10.67
2018-12-18T10:30:21.919Z,12.93
2018-12-18T10:32:55.848Z,11.40
2018-12-18T10:35:30.478Z,8.83
2018-12-18T10:38:04.308Z,11.83
2018-12-18T10:40:38.156Z,9.53
2018-12-18T10:43:12.125Z,12.50
2018-12-18T10:45:45.961Z,14.67
2018-12-18T10:48:19.774Z,10.43
2018-12-18T10:50:53.590Z,12.43
2018-12-18T10:53:27.924Z,11.57
2018-12-18T10:56:02.138Z,10.53
2018-12-18T10:58:36.410Z,11.17
2018-12-18T11:01:16.225Z,11.17
2018-12-18T11:03:50.186Z,10.93
2018-12-18T11:06:24.078Z,10.03
2018-12-18T11:08:57.973Z,11.90
2018-12-18T11:11:31.738Z,10.57
2018-12-18T11:14:05.573Z,11.53
2018-12-18T11:16:39.385Z,13.00
2018-12-18T11:19:13.203Z,13.23
2018-12-18T11:21:46.990Z,11.43
2018-12-18T11:24:20.849Z,8.87
2018-12-18T11:26:54.665Z,11.27
2018-12-18T11:29:28.457Z,7.70
2018-12-18T11:32:02.353Z,8.00
2018-12-18T11:34:36.113Z,8.50
2018-12-18T11:37:10.046Z,9.60
2018-12-18T11:39:43.821Z,8.43
2018-12-18T11:42:17.799Z,6.93
2018-12-18T11:44:54.005Z,7.57
2018-12-18T11:47:28.168Z,10.43
2018-12-18T11:50:02.122Z,6.27
2018-12-18T11:52:36.350Z,9.53
2018-12-18T11:55:10.326Z,5.43
2018-12-18T11:57:44.039Z,5.10
2018-12-18T12:00:18.118Z,5.43
2018-12-18T12:02:52.575Z,4.57
2018-12-18T12:05:26.294Z,8.40
2018-12-18T12:08:00.158Z,4.63
2018-12-18T12:10:33.874Z,5.27
2018-12-18T12:13:07.645Z,7.40
2018-12-18T12:15:41.445Z,6.63
2018-12-18T12:18:15.490Z,6.10
2018-12-18T12:20:49.290Z,5.40
2018-12-18T12:23:23.094Z,8.23
2018-12-18T12:25:56.889Z,6.73
2018-12-18T12:28:30.711Z,6.27
2018-12-18T12:31:04.618Z,7.10
2018-12-18T12:33:38.643Z,7.23
2018-12-18T12:36:12.548Z,5.97
2018-12-18T12:38:46.561Z,9.13
2018-12-18T12:41:20.717Z,5.93
2018-12-18T12:43:54.585Z,8.70
2018-12-18T12:46:28.346Z,7.93
2018-12-18T12:49:04.123Z,7.03
2018-12-18T12:51:38.027Z,5.57
2018-12-18T12:54:12.026Z,7.73
2018-12-18T12:56:46.026Z,5.93
2018-12-18T12:59:20.086Z,7.00
2018-12-18T13:01:54.146Z,4.17
2018-12-18T13:04:28.111Z,4.70
2018-12-18T13:07:01.997Z,5.93
2018-12-18T13:09:35.895Z,6.03
2018-12-18T13:12:09.858Z,8.50
2018-12-18T13:14:43.670Z,4.83
2018-12-18T13:17:17.446Z,5.87
2018-12-18T13:19:51.267Z,6.93
2018-12-18T13:22:24.857Z,6.60
2018-12-18T13:24:58.651Z,7.63
2018-12-18T13:27:32.403Z,6.93
2018-12-18T13:30:06.870Z,4.67
2018-12-18T13:32:40.830Z,6.97
2018-12-18T13:35:14.698Z,5.90
2018-12-18T13:37:48.658Z,8.37
2018-12-18T13:40:23.484Z,5.77
2018-12-18T13:42:57.433Z,8.00
2018-12-18T13:45:31.245Z,5.87
2018-12-18T13:48:05.021Z,7.80
2018-12-18T13:50:38.969Z,8.97
2018-12-18T13:53:12.789Z,9.17
2018-12-18T13:55:46.514Z,7.07
2018-12-18T13:58:20.736Z,6.77
2018-12-18T14:00:54.594Z,5.23
2018-12-18T14:03:28.540Z,6.87
2018-12-18T14:06:02.385Z,6.80
2018-12-18T14:08:36.214Z,8.20
2018-12-18T14:11:09.955Z,3.90
2018-12-18T14:13:43.842Z,8.63
2018-12-18T14:16:17.686Z,7.90
2018-12-18T14:18:51.522Z,6.80
2018-12-18T14:21:25.369Z,8.67
2018-12-18T14:23:59.173Z,5.40
2018-12-18T14:26:32.969Z,7.60
2018-12-18T14:29:06.812Z,5.30
2018-12-18T14:31:40.740Z,10.17
2018-12-18T14:34:14.526Z,6.90
2018-12-18T14:36:48.450Z,6.33
2018-12-18T14:39:22.366Z,6.87
2018-12-18T14:41:56.162Z,9.80
2018-12-18T14:44:30.174Z,5.87
2018-12-18T14:47:05.028Z,6.77
2018-12-18T14:49:39.810Z,10.73
2018-12-18T14:52:13.661Z,5.93
2018-12-18T14:54:47.363Z,6.57
2018-12-18T14:57:21.205Z,5.57
2018-12-18T14:59:54.991Z,6.37
2018-12-18T15:02:28.827Z,7.53
2018-12-18T15:05:02.666Z,9.97
2018-12-18T15:07:36.534Z,6.73
2018-12-18T15:10:10.574Z,9.17
2018-12-18T15:12:46.566Z,10.33
2018-12-18T15:15:20.335Z,8.37
2018-12-18T15:17:54.261Z,6.53
2018-12-18T15:20:28.062Z,5.63
2018-12-18T15:23:02.070Z,7.20
2018-12-18T15:25:36.064Z,6.73
2018-12-18T15:28:10.182Z,10.00
2018-12-18T15:30:43.933Z,8.30
2018-12-18T15:33:17.685Z,8.83
2018-12-18T15:35:51.674Z,7.23
2018-12-18T15:38:25.589Z,11.07
2018-12-18T15:40:59.436Z,10.10
2018-12-18T15:43:33.237Z,9.00
2018-12-18T15:46:07.089Z,10.40
2018-12-18T15:48:41.054Z,8.77
2018-12-18T15:51:15.046Z,10.50
2018-12-18T15:53:49.081Z,9.03
2018-12-18T15:56:22.969Z,10.30
2018-12-18T15:58:56.714Z,10.53
2018-12-18T16:01:30.702Z,12.53
2018-12-18T16:04:04.710Z,13.07
2018-12-18T16:06:38.603Z,8.97
2018-12-18T16:09:12.382Z,10.33
2018-12-18T16:11:46.452Z,10.77
2018-12-18T16:14:20.273Z,11.20
2018-12-18T16:16:54.162Z,10.03
2018-12-18T16:19:28.173Z,12.27
2018-12-18T16:22:02.026Z,10.80
2018-12-18T16:24:36.771Z,11.57
2018-12-18T16:27:10.626Z,10.73
2018-12-18T16:29:44.451Z,12.80
2018-12-18T16:32:18.234Z,13.63
2018-12-18T16:34:52.146Z,10.20
2018-12-18T16:37:25.917Z,13.37
2018-12-18T16:39:59.979Z,17.27
2018-12-18T16:42:33.871Z,16.30
2018-12-18T16:45:07.770Z,13.37
2018-12-18T16:47:41.650Z,12.03
2018-12-18T16:50:15.546Z,11.27
2018-12-18T16:52:49.449Z,10.67
2018-12-18T16:55:23.199Z,11.73
2018-12-18T16:57:56.974Z,13.10
2018-12-18T17:00:30.723Z,13.27
2018-12-18T17:03:04.664Z,14.43
2018-12-18T17:05:38.678Z,11.80
2018-12-18T17:08:12.612Z,11.67
2018-12-18T17:10:46.414Z,10.17
2018-12-18T17:13:20.150Z,12.13
2018-12-18T17:15:54.076Z,9.83
2018-12-18T17:18:27.998Z,13.40
2018-12-18T17:21:01.795Z,10.47
2018-12-18T17:23:35.630Z,12.87
2018-12-18T17:26:09.470Z,12.73
2018-12-18T17:28:43.296Z,11.67
2018-12-18T17:31:17.079Z,10.93
2018-12-18T17:33:50.867Z,12.93
2018-12-18T17:36:24.681Z,8.40
2018-12-18T17:38:58.621Z,10.10
2018-12-18T17:41:32.490Z,11.47
2018-12-18T17:44:06.353Z,10.87
2018-12-18T17:46:40.163Z,14.37
2018-12-18T17:49:14.138Z,13.03
2018-12-18T17:51:48.074Z,12.90
2018-12-18T17:54:22.034Z,15.73
2018-12-18T17:56:59.383Z,14.23
2018-12-18T17:59:33.515Z,10.90
2018-12-18T18:02:07.546Z,14.57
2018-12-18T18:04:41.502Z,12.20
2018-12-18T18:07:15.333Z,11.17
2018-12-18T18:09:49.179Z,11.57
2018-12-18T18:12:23.005Z,13.77
2018-12-18T18:14:59.065Z,10.10
2018-12-18T18:17:32.794Z,11.97
2018-12-18T18:20:07.307Z,15.63
2018-12-18T18:22:41.146Z,11.50
2018-12-18T18:25:15.137Z,8.93
2018-12-18T18:27:49.081Z,6.27
2018-12-18T18:30:22.937Z,11.03
2018-12-18T18:33:01.634Z,9.63
2018-12-18T18:35:35.285Z,8.50
2018-12-18T18:38:09.061Z,11.80
2018-12-18T18:40:42.822Z,7.80
2018-12-18T18:43:16.742Z,6.73
2018-12-18T18:45:50.710Z,8.23
2018-12-18T18:48:24.959Z,7.93
2018-12-18T18:50:59.216Z,9.43
2018-12-18T18:53:33.234Z,7.20
2018-12-18T18:56:07.617Z,7.50
2018-12-18T18:58:41.868Z,8.97
2018-12-18T19:01:15.685Z,5.50
2018-12-18T19:03:49.824Z,8.57
2018-12-18T19:06:23.849Z,7.13
2018-12-18T19:08:57.669Z,9.93
2018-12-18T19:11:31.513Z,7.10
2018-12-18T19:14:05.373Z,4.93
2018-12-18T19:16:39.369Z,5.17
2018-12-18T19:19:13.219Z,5.60
2018-12-18T19:21:47.263Z,5.30
2018-12-18T19:24:21.097Z,9.73
2018-12-18T19:26:54.962Z,6.87
2018-12-18T19:29:28.850Z,6.93
2018-12-18T19:32:02.924Z,6.33
2018-12-18T19:34:36.737Z,6.70
2018-12-18T19:37:10.511Z,5.57
2018-12-18T19:39:44.521Z,7.20
2018-12-18T19:42:18.589Z,5.70
2018-12-18T19:44:52.607Z,7.23
2018-12-18T19:47:26.593Z,11.43
2018-12-18T19:50:00.446Z,6.43
2018-12-18T19:52:34.262Z,8.13
2018-12-18T19:55:08.318Z,8.17
2018-12-18T19:57:42.193Z,8.60
2018-12-18T20:00:15.913Z,7.20
2018-12-18T20:02:49.951Z,6.30
2018-12-18T20:05:23.725Z,8.93
2018-12-18T20:07:58.590Z,6.53
2018-12-18T20:10:33.734Z,6.77
2018-12-18T20:13:07.442Z,6.50
2018-12-18T20:15:42.164Z,8.70
2018-12-18T20:18:16.863Z,7.57
2018-12-18T20:20:50.784Z,10.80
2018-12-18T20:23:27.190Z,10.97
2018-12-18T20:26:03.840Z,9.20
2018-12-18T20:28:40.691Z,7.80
2018-12-18T20:31:16.765Z,8.60
2018-12-18T20:33:50.685Z,11.03
2018-12-18T20:36:25.027Z,7.27
2018-12-18T20:38:59.028Z,4.83
2018-12-18T20:41:35.013Z,6.53
2018-12-18T20:44:11.240Z,5.80
2018-12-18T20:46:45.196Z,7.83
2018-12-18T20:49:18.997Z,8.83
2018-12-18T20:51:54.331Z,8.43
2018-12-18T20:54:29.959Z,6.83
2018-12-18T20:57:04.109Z,5.67
2018-12-18T20:59:37.954Z,13.70
2018-12-18T21:02:11.790Z,8.23
2018-12-18T21:04:45.630Z,6.53
2018-12-18T21:07:19.752Z,6.27
2018-12-18T21:09:53.758Z,8.60
2018-12-18T21:12:27.745Z,8.13
2018-12-18T21:15:01.692Z,9.87
2018-12-18T21:17:35.483Z,6.60
2018-12-18T21:20:09.347Z,5.57
2018-12-18T21:22:43.299Z,7.13
2018-12-18T21:25:19.129Z,6.40
2018-12-18T21:27:52.987Z,5.87
2018-12-18T21:30:26.848Z,5.97
2018-12-18T21:33:00.685Z,5.90
2018-12-18T21:35:34.508Z,12.27
2018-12-18T21:38:08.346Z,8.43
2018-12-18T21:40:42.089Z,7.90
2018-12-18T21:43:16.079Z,9.57
2018-12-18T21:45:50.075Z,6.30
2018-12-18T21:48:24.030Z,12.33
2018-12-18T21:50:57.850Z,7.93
2018-12-18T21:53:31.690Z,7.17
2018-12-18T21:56:05.473Z,7.67
2018-12-18T21:58:39.217Z,7.17
2018-12-18T22:01:12.860Z,6.13
2018-12-18T22:03:46.654Z,8.70
2018-12-18T22:06:20.576Z,9.87
2018-12-18T22:08:54.475Z,8.23
2018-12-18T22:11:28.250Z,7.07
2018-12-18T22:14:02.178Z,9.63
2018-12-18T22:16:36.051Z,9.93
2018-12-18T22:19:09.844Z,10.00
2018-12-18T22:21:43.577Z,8.13
2018-12-18T22:24:17.357Z,7.60
2018-12-18T22:26:51.141Z,10.10
2018-12-18T22:29:24.976Z,10.60
2018-12-18T22:31:58.757Z,6.83
2018-12-18T22:34:32.596Z,8.27
2018-12-18T22:37:06.268Z,8.43
2018-12-18T22:39:40.207Z,8.70
2018-12-18T22:42:13.977Z,7.03
2018-12-18T22:44:47.849Z,8.80
2018-12-18T22:47:21.589Z,6.90
2018-12-18T22:49:55.250Z,12.50
2018-12-18T22:52:29.006Z,7.20
2018-12-18T22:55:02.892Z,7.67
2018-12-18T22:57:36.739Z,10.70
2018-12-18T23:00:12.877Z,8.57
2018-12-18T23:02:46.901Z,7.57
2018-12-18T23:05:20.618Z,11.70
2018-12-18T23:07:54.451Z,8.97
2018-12-18T23:10:28.386Z,9.37
2018-12-18T23:13:02.233Z,7.13
2018-12-18T23:15:36.234Z,9.87
2018-12-18T23:18:10.062Z,9.57
2018-12-18T23:20:43.955Z,9.77
2018-12-18T23:23:17.909Z,10.53
2018-12-18T23:25:51.897Z,7.10
2018-12-18T23:28:25.794Z,7.77
2018-12-18T23:30:59.675Z,7.90
2018-12-18T23:33:33.609Z,6.13
2018-12-18T23:36:07.591Z,7.23
2018-12-18T23:38:41.361Z,8.20
2018-12-18T23:41:15.239Z,9.20
2018-12-18T23:43:48.877Z,6.23
2018-12-18T23:46:22.804Z,9.87
2018-12-18T23:48:56.589Z,7.53
2018-12-18T23:51:30.575Z,7.90
2018-12-18T23:54:04.461Z,6.47
2018-12-18T23:56:38.179Z,7.33
2018-12-18T23:59:12.040Z,8.80
